Time;durP1;ratioP1;P1;durP2;ratioP2;P2;SDS_P1;SDS_P2;PMS_P1;PMS_P2;Temp;Humidity;BMP_temperature;BMP_pressure;BME280_temperature;BME280_humidity;BME280_pressure;Samples;Min_cycle;Max_cycle;Signal;HPM_P1;HPM_P2
2024/02/02 17:26:29;;;;;;;;;;;1.70;96.80;;;;;;5166378;27;19918;-91
2024/02/02 17:28:55;;;;;;;;;;;1.60;97.70;;;;;;5132610;27;20006;-91
2024/02/02 17:31:21;;;;;;;;;;;1.60;99.00;;;;;;5132556;27;19907;-91
2024/02/02 17:33:46;;;;;;;;;;;1.70;99.90;;;;;;5133065;27;20391;-91
2024/02/02 17:36:13;;;;;;;;;;;1.80;99.90;;;;;;5132746;27;19936;-91
2024/02/02 17:38:39;;;;;;;;;;;1.90;99.90;;;;;;5131703;28;20419;-91
2024/02/02 17:41:11;;;;;;;;;;;2.00;99.90;;;;;;5132895;27;19907;-90
2024/02/02 17:43:37;;;;;;;;;;;2.10;99.90;;;;;;5131328;27;20420;-91
2024/02/02 17:46:05;;;;;;;;;;;2.20;99.90;;;;;;5132022;28;19912;-92
2024/02/02 17:48:31;;;;;;;;;;;2.20;99.90;;;;;;5132221;27;19955;-90
2024/02/02 17:50:56;;;;;;;;;;;2.30;99.90;;;;;;5130940;28;19931;-91
2024/02/02 17:53:21;;;;;;;;;;;2.40;99.90;;;;;;5132106;27;19930;-90
2024/02/02 17:55:47;;;;;;;;;;;2.40;99.90;;;;;;5132102;27;19950;-90
2024/02/02 17:58:12;;;;;;;;;;;2.50;99.90;;;;;;5132306;27;19957;-90
2024/02/02 18:00:39;;;;;;;;;;;2.50;99.90;;;;;;5131481;27;19959;-91
2024/02/02 18:03:05;;;;;;;;;;;2.60;99.90;;;;;;5130911;28;19911;-91
2024/02/02 18:05:31;;;;;;;;;;;2.60;99.90;;;;;;5130437;27;19984;-92
2024/02/02 18:07:57;;;;;;;;;;;2.60;99.90;;;;;;5130292;27;19919;-91
2024/02/02 18:10:22;;;;;;;;;;;2.70;99.90;;;;;;5131787;27;19950;-91
2024/02/02 18:12:48;;;;;;;;;;;2.70;99.90;;;;;;5130164;27;19954;-91
2024/02/02 18:15:16;;;;;;;;;;;2.70;99.90;;;;;;5131687;27;19960;-91
2024/02/02 18:17:42;;;;;;;;;;;2.70;99.90;;;;;;5131574;27;19908;-91
2024/02/02 18:20:07;;;;;;;;;;;2.70;99.90;;;;;;5131616;27;19991;-90
2024/02/02 18:22:34;;;;;;;;;;;2.70;99.90;;;;;;5131569;27;19975;-90
2024/02/02 18:25:00;;;;;;;;;;;2.70;99.90;;;;;;5131304;27;20427;-90
2024/02/02 18:27:25;;;;;;;;;;;2.70;99.90;;;;;;5131466;27;20354;-90
2024/02/02 18:29:52;;;;;;;;;;;2.60;99.90;;;;;;5131410;27;19912;-90
2024/02/02 18:32:20;;;;;;;;;;;2.60;99.90;;;;;;5130069;28;20356;-90
2024/02/02 18:34:46;;;;;;;;;;;2.60;99.90;;;;;;5129787;28;20283;-91
2024/02/02 18:37:13;;;;;;;;;;;2.60;99.90;;;;;;5121036;27;19912;-91
2024/02/02 18:39:39;;;;;;;;;;;2.60;99.90;;;;;;5117024;28;19912;-91
2024/02/02 18:42:07;;;;;;;;;;;2.60;99.90;;;;;;5116186;28;19915;-90
2024/02/02 18:44:35;;;;;;;;;;;2.60;99.90;;;;;;5116028;28;19955;-90
2024/02/02 18:47:01;;;;;;;;;;;2.60;99.90;;;;;;5116151;28;19907;-91
2024/02/02 18:49:27;;;;;;;;;;;2.60;99.90;;;;;;5115855;28;19918;-91
2024/02/02 18:51:52;;;;;;;;;;;2.60;99.90;;;;;;5115578;28;20372;-90
2024/02/02 18:54:17;;;;;;;;;;;2.60;99.90;;;;;;5115580;28;19918;-90
2024/02/02 18:56:43;;;;;;;;;;;2.60;99.90;;;;;;5117340;28;19960;-91
2024/02/02 18:59:08;;;;;;;;;;;2.50;99.90;;;;;;5115595;28;19912;-91
2024/02/02 19:01:34;;;;;;;;;;;2.50;99.90;;;;;;5117109;28;19914;-89
2024/02/02 19:04:00;;;;;;;;;;;2.50;99.90;;;;;;5116943;28;19961;-91
2024/02/02 19:06:25;;;;;;;;;;;2.40;99.90;;;;;;5117004;27;19911;-91
2024/02/02 19:08:51;;;;;;;;;;;2.50;99.90;;;;;;5116989;28;19990;-90
2024/02/02 19:11:17;;;;;;;;;;;2.40;99.90;;;;;;5113764;28;19974;-90
2024/02/02 19:13:43;;;;;;;;;;;2.40;99.90;;;;;;5116988;28;19908;-91
2024/02/02 19:16:19;;;;;;;;;;;2.40;99.90;;;;;;5115541;28;19915;-90
2024/02/02 19:18:44;;;;;;;;;;;2.40;99.90;;;;;;5116844;28;19908;-90
2024/02/02 19:24:13;;;;;;;;;;;2.40;99.90;;;;;;5116342;28;19914;-90
2024/02/02 19:26:39;;;;;;;;;;;2.40;99.90;;;;;;5116693;28;19998;-91
2024/02/02 19:29:05;;;;;;;;;;;2.40;99.90;;;;;;5115359;28;20298;-91
2024/02/02 19:31:31;;;;;;;;;;;2.30;99.90;;;;;;5117513;28;19940;-91
2024/02/02 19:33:57;;;;;;;;;;;2.30;99.90;;;;;;5115931;28;19915;-92
2024/02/02 19:36:27;;;;;;;;;;;2.30;99.90;;;;;;5117258;27;19908;-90
2024/02/02 19:38:53;;;;;;;;;;;2.30;99.90;;;;;;5115517;28;19915;-90
2024/02/02 19:41:23;;;;;;;;;;;2.30;99.90;;;;;;5115582;28;20356;-91
2024/02/02 19:43:49;;;;;;;;;;;2.40;99.90;;;;;;5098341;28;20287;-90
